Flight Track Log - Related Links

Times and Time Zones

All times are in EDT time to prevent confusion due to time zone crossing. See the FLG3432 flight status page for this flight to view local times or setup timezone preferences in your user account.

Time Position Orientation Groundspeed Altitude Reporting Facility
EDT Latitude Longitude Course Direction KTS MPH feet Rate Location/Type
Sun 07:48:10 PM 40.8086 -111.9786 163° South 182 209 4,800  Level Salt Lake Center
Sun 07:48:46 PM 40.8414 -111.9817 356° North 188 216 5,800 1,431 Climbing Salt Lake Center
Sun 07:49:59 PM 40.9208 -111.9914 355° North 250 288 7,400 1,624 Climbing Salt Lake Center
Sun 07:50:00 PM 41.1128 -111.9475 48° Northeast  Level FlightAware Approximate
Sun 07:50:59 PM 40.9983 -112.0019 354° North 277 319 9,400  Level Salt Lake Center
Sun 07:51:00 PM 41.1260 -111.8040 108° East  Level FlightAware Approximate
Sun 07:52:00 PM 41.0338 -111.7295 163° South  Level FlightAware Approximate
Sun 07:52:00 PM 41.0597 -111.9528 31° Northeast 297 342 11,500  Level Salt Lake Center
Sun 07:53:00 PM 40.9220 -111.6834 163° South  Level FlightAware Approximate
Sun 07:53:13 PM 41.0131 -111.8617 124° Southeast 287 330 13,200  Level Salt Lake Center
Sun 07:54:16 PM 40.9397 -111.7944 145° Southeast 328 377 14,800 1,902 Climbing Salt Lake Center
Sun 07:55:16 PM 40.8464 -111.7092 145° Southeast 340 391 17,100 2,115 Climbing Salt Lake Center
Sun 07:56:18 PM 40.7669 -111.6339 144° Southeast 352 405 19,100 1,694 Climbing Salt Lake Center
Sun 07:57:20 PM 40.7233 -111.5089 115° Southeast 379 436 20,600 1,500 Climbing Salt Lake Center
Sun 07:58:22 PM 40.6842 -111.3744 111° Southeast 393 452 22,200 1,561 Climbing Salt Lake Center
Sun 07:59:23 PM 40.6442 -111.2383 111° Southeast 398 458 23,800 1,415 Climbing Salt Lake Center
Sun 08:00:25 PM 40.6036 -111.0978 111° Southeast 406 467 25,100 1,210 Climbing Salt Lake Center
Sun 08:01:27 PM 40.5608 -110.9531 111° Southeast 423 487 26,300 1,258 Climbing Salt Lake Center
Sun 08:02:29 PM 40.5092 -110.7772 111° Southeast 433 498 27,700 1,073 Climbing Salt Lake Center
Sun 08:03:30 PM 40.4650 -110.6275 111° Southeast 439 505 28,500 878 Climbing Salt Lake Center
Sun 08:04:32 PM 40.4192 -110.4783 112° Southeast 450 518 29,500 1,065 Climbing Salt Lake Center
Sun 08:05:34 PM 40.3194 -110.3481 135° Southeast 454 522 30,700 878 Climbing Salt Lake Center
Sun 08:06:35 PM 40.2336 -110.2356 135° Southeast 455 524 31,300 829 Climbing Salt Lake Center
Sun 08:07:37 PM 40.1325 -110.1008 134° Southeast 464 534 32,400 1,161 Climbing Salt Lake Center
Sun 08:08:39 PM 40.0644 -109.9692 124° Southeast 461 531 33,700 1,016 Climbing Salt Lake Center
Sun 08:09:41 PM 39.9972 -109.8397 124° Southeast 454 522 34,500 878 Climbing Salt Lake Center
Sun 08:10:42 PM 39.9183 -109.6914 125° Southeast 449 517 35,500 829 Climbing Salt Lake Center
Sun 08:11:44 PM 39.8497 -109.5644 125° Southeast 448 516 36,200 677 Climbing Salt Lake Center
Sun 08:12:46 PM 39.7717 -109.4175 125° Southeast 445 512 36,900 390 Climbing Salt Lake Center
Sun 08:13:47 PM 39.7033 -109.2914 125° Southeast 446 513 37,000 49 Climbing Salt Lake Center
Sun 08:14:49 PM 39.6219 -109.1403 125° Southeast 455 524 37,000  Level Salt Lake Center
Sun 08:15:51 PM 39.5506 -109.0097 125° Southeast 466 536 37,000  Level Salt Lake Center
Sun 08:17:06 PM 39.4542 -108.8317 125° Southeast 478 550 37,000  Level Denver Center
Sun 08:18:07 PM 39.3703 -108.6758 125° Southeast 479 551 37,000  Level Denver Center
Sun 08:19:09 PM 39.2978 -108.5425 125° Southeast 476 548 37,000  Level Denver Center
Sun 08:20:11 PM 39.2114 -108.3856 125° Southeast 482 555 37,000  Level Denver Center
Sun 08:21:13 PM 39.1369 -108.2494 125° Southeast 485 558 37,000  Level Denver Center
Sun 08:22:14 PM 39.0617 -108.1158 126° Southeast 483 556 37,000  Level Denver Center
Sun 08:23:16 PM 38.9736 -107.9600 126° Southeast 483 556 37,000  Level Denver Center
Sun 08:24:18 PM 38.8983 -107.8247 126° Southeast 487 560 37,000  Level Denver Center
Sun 08:25:20 PM 38.8122 -107.6708 126° Southeast 477 549 37,000  Level Denver Center
Sun 08:26:22 PM 38.7367 -107.5417 127° Southeast 474 545 37,000  Level Denver Center
Sun 08:27:23 PM 38.6500 -107.3856 125° Southeast 480 552 37,000  Level Denver Center
Sun 08:28:25 PM 38.5753 -107.2567 127° Southeast 474 545 37,000  Level Denver Center
Sun 08:29:27 PM 38.4953 -107.1172 126° Southeast 474 545 37,000  Level Denver Center
Sun 08:30:29 PM 38.4181 -106.9822 126° Southeast 472 543 37,000  Level Denver Center
Sun 08:31:31 PM 38.3411 -106.8442 125° Southeast 474 545 37,000  Level Denver Center
Sun 08:32:32 PM 38.2686 -106.7122 125° Southeast 476 548 37,000  Level Denver Center
Sun 08:33:46 PM 38.1819 -106.5619 126° Southeast 472 543 37,000  Level Denver Center
Sun 08:34:48 PM 38.0783 -106.3767 125° Southeast 477 549 37,000  Level Denver Center
Sun 08:35:50 PM 38.0119 -106.2561 125° Southeast 472 543 37,000  Level Denver Center
Sun 08:36:51 PM 37.9361 -106.1267 127° Southeast 476 548 37,000  Level Denver Center
Sun 08:37:53 PM 37.8503 -105.9753 126° Southeast 475 547 37,000  Level Denver Center
Sun 08:38:55 PM 37.7608 -105.8231 127° Southeast 482 555 37,000  Level Denver Center
Sun 08:39:56 PM 37.6847 -105.6922 126° Southeast 483 556 37,000  Level Denver Center
Sun 08:40:58 PM 37.5969 -105.5394 126° Southeast 482 555 37,000  Level Denver Center
Sun 08:42:00 PM 37.5156 -105.3961 126° Southeast 481 554 37,000  Level Denver Center
Sun 08:43:01 PM 37.4381 -105.2658 127° Southeast 484 557 37,000  Level Denver Center
Sun 08:44:03 PM 37.3553 -105.1239 126° Southeast 490 564 37,000  Level Denver Center
Sun 08:45:05 PM 37.2775 -104.9925 127° Southeast 490 564 37,000  Level Denver Center
Sun 08:46:06 PM 37.1872 -104.8383 126° Southeast 493 567 37,000  Level Denver Center
Sun 08:47:08 PM 37.1067 -104.7056 127° Southeast 498 573 37,000  Level Denver Center
Sun 08:48:22 PM 37.0153 -104.5517 127° Southeast 497 572 37,000  Level Denver Center
Sun 08:49:24 PM 36.9106 -104.3769 127° Southeast 495 570 37,000  Level Denver Center
Sun 08:50:11 PM 36.8586 -104.2897 127° Southeast 493 567 37,000  Level Albuquerque Center
Sun 08:51:12 PM 36.7658 -104.1392 128° Southeast 492 566 37,000  Level Albuquerque Center
Sun 08:52:13 PM 36.6875 -104.0100 127° Southeast 490 564 37,000  Level Albuquerque Center
Sun 08:53:15 PM 36.5853 -103.8678 132° Southeast 494 568 37,000  Level Albuquerque Center
Sun 08:54:16 PM 36.4914 -103.7422 133° Southeast 491 565 37,000  Level Albuquerque Center
Sun 08:55:18 PM 36.3981 -103.6156 132° Southeast 492 566 37,000  Level Albuquerque Center
Sun 08:56:20 PM 36.3031 -103.4900 133° Southeast 493 567 37,000  Level Albuquerque Center
Sun 08:57:21 PM 36.2078 -103.3653 133° Southeast 493 567 37,000  Level Albuquerque Center
Sun 08:58:23 PM 36.1333 -103.2183 122° Southeast 501 577 37,000  Level Albuquerque Center
Sun 08:59:24 PM 36.0647 -103.0644 119° Southeast 506 582 37,000  Level Albuquerque Center
Sun 09:00:26 PM 35.9919 -102.9042 119° Southeast 505 581 37,000  Level Albuquerque Center
Sun 09:01:28 PM 35.9236 -102.7519 119° Southeast 507 583 37,000  Level Albuquerque Center
Sun 09:02:29 PM 35.8447 -102.6114 125° Southeast 500 575 37,000  Level Albuquerque Center
Sun 09:03:31 PM 35.7494 -102.4847 133° Southeast 502 578 37,000  Level Albuquerque Center
Sun 09:04:32 PM 35.6511 -102.3642 135° Southeast 501 577 37,000  Level Albuquerque Center
Sun 09:05:34 PM 35.5236 -102.2336 140° Southeast 499 574 37,000  Level Albuquerque Center
Sun 09:06:35 PM 35.4136 -102.1336 143° Southeast 496 571 37,000  Level Albuquerque Center
Sun 09:07:37 PM 35.3047 -102.0333 143° Southeast 494 568 37,000  Level Albuquerque Center
Sun 09:08:39 PM 35.1903 -101.9300 144° Southeast 494 568 37,000  Level Albuquerque Center
Sun 09:09:40 PM 35.0717 -101.8414 149° Southeast 492 566 37,000  Level Albuquerque Center
Sun 09:10:42 PM 34.9642 -101.7106 135° Southeast 508 585 37,000  Level Albuquerque Center
Sun 09:11:43 PM 34.9031 -101.5597 116° Southeast 505 581 37,000  Level Albuquerque Center
Sun 09:12:45 PM 34.8419 -101.4067 116° Southeast 508 585 37,000  Level Albuquerque Center
Sun 09:13:46 PM 34.7808 -101.2522 116° Southeast 509 586 37,000  Level Albuquerque Center
Sun 09:14:48 PM 34.7217 -101.0947 115° Southeast 511 588 37,000  Level Albuquerque Center
Sun 09:15:49 PM 34.6667 -100.9353 113° Southeast 513 590 37,000  Level Albuquerque Center
Sun 09:16:51 PM 34.6114 -100.7767 113° Southeast 512 589 37,000  Level Albuquerque Center
Sun 09:17:52 PM 34.5467 -100.5869 112° Southeast 510 587 37,000  Level Albuquerque Center
Sun 09:18:54 PM 34.4908 -100.4325 114° Southeast 506 582 37,000 -146 Level Albuquerque Center
Sun 09:19:55 PM 34.4356 -100.2772 113° Southeast 503 579 36,700 -634 Descending Albuquerque Center
Sun 09:20:57 PM 34.3794 -100.1194 113° Southeast 508 585 35,700 -897 Descending Albuquerque Center
Sun 09:21:42 PM 34.3486 -100.0194 110° East 504 580 35,100 -971 Descending Fort Worth Center
Sun 09:22:42 PM 34.2853 -99.8517 115° Southeast 504 580 34,000 -1,050 Descending Fort Worth Center
Sun 09:23:42 PM 34.2297 -99.6944 113° Southeast 504 580 33,000 -500 Descending Fort Worth Center
Sun 09:24:42 PM 34.1742 -99.5372 113° Southeast 504 580 33,000  Level Fort Worth Center
Sun 09:25:42 PM 34.1142 -99.3778 114° Southeast 510 587 33,000 -800 Level Fort Worth Center
Sun 09:26:42 PM 34.0558 -99.2183 114° Southeast 510 587 31,400 -1,800 Descending Fort Worth Center
Sun 09:27:42 PM 34.0017 -99.0644 113° Southeast 505 581 29,400 -1,800 Descending Fort Worth Center
Sun 09:28:42 PM 33.9472 -98.9183 114° Southeast 493 567 27,800 -1,500 Descending Fort Worth Center
Sun 09:29:42 PM 33.8989 -98.7772 112° Southeast 474 545 26,400 -1,500 Descending Fort Worth Center
Sun 09:30:42 PM 33.8397 -98.6414 118° Southeast 457 526 24,800 -1,200 Descending Fort Worth Center
Sun 09:31:42 PM 33.7803 -98.5081 118° Southeast 445 512 24,000 -1,050 Descending Fort Worth Center
Sun 09:32:42 PM 33.7086 -98.3547 119° Southeast 466 536 22,700 -1,900 Descending Fort Worth Center
Sun 09:33:42 PM 33.6489 -98.2219 118° Southeast 466 536 20,200 -2,500 Descending Fort Worth Center
Sun 09:34:42 PM 33.5914 -98.0942 118° Southeast 456 525 17,700 -2,550 Descending Fort Worth Center
Sun 09:35:42 PM 33.5333 -97.9717 120° Southeast 430 495 15,100 -2,450 Descending Fort Worth Center
Sun 09:36:42 PM 33.4881 -97.8667 117° Southeast 407 468 12,800 -2,000 Descending Fort Worth Center
Sun 09:37:42 PM 33.4300 -97.7444 120° Southeast 386 444 11,100 -1,150 Descending Fort Worth Center
Sun 09:38:42 PM 33.3906 -97.6622 120° Southeast 338 389 10,500 -1,115 Descending Fort Worth Center
Sun 09:39:35 PM 33.3500 -97.5833 122° Southeast 287 330 9,000 -1,646 Descending Dallas / Fort Worth TRACON
Sun 09:40:35 PM 33.3167 -97.5000 116° Southeast 277 319 7,400 -1,550 Descending Dallas / Fort Worth TRACON
Sun 09:41:35 PM 33.2833 -97.4167 116° Southeast 272 313 5,900 -1,140 Descending Dallas / Fort Worth TRACON
Sun 09:42:36 PM 33.2667 -97.3333 103° East 257 296 5,100 -397 Descending Dallas / Fort Worth TRACON
Sun 09:43:36 PM 33.2333 -97.2500 116° Southeast 258 297 5,100  Level Dallas / Fort Worth TRACON
Sun 09:44:41 PM 33.1833 -97.2000 140° Southeast 246 283 5,100 -238 Level Dallas / Fort Worth TRACON
Sun 09:45:42 PM 33.1167 -97.1333 140° Southeast 250 288 4,600 -1,000 Descending Dallas / Fort Worth TRACON
Sun 09:46:41 PM 33.0667 -97.0833 140° Southeast 239 275 3,100 -1,525 Descending Dallas / Fort Worth TRACON

Login

Don't have an account? Register now (free) for customized features, flight alerts, and more!